sensor_id;sensor_type;location;lat;lon;timestamp;temperature;humidity
31451;DHT22;18070;52.474;13.304;2024-03-17T00:02:20;6.10;99.90
31451;DHT22;18070;52.474;13.304;2024-03-17T00:04:45;6.20;99.90
31451;DHT22;18070;52.474;13.304;2024-03-17T00:07:12;6.10;99.90
31451;DHT22;18070;52.474;13.304;2024-03-17T00:09:38;6.10;99.90
31451;DHT22;18070;52.474;13.304;2024-03-17T00:12:04;6.10;99.90
31451;DHT22;18070;52.474;13.304;2024-03-17T00:14:29;6.10;99.90
31451;DHT22;18070;52.474;13.304;2024-03-17T00:16:55;6.10;99.90
31451;DHT22;18070;52.474;13.304;2024-03-17T00:19:21;6.10;99.90
31451;DHT22;18070;52.474;13.304;2024-03-17T00:21:49;6.10;99.90
31451;DHT22;18070;52.474;13.304;2024-03-17T00:24:18;6.00;99.90
31451;DHT22;18070;52.474;13.304;2024-03-17T00:26:47;6.00;99.90
31451;DHT22;18070;52.474;13.304;2024-03-17T00:29:14;6.00;99.90
31451;DHT22;18070;52.474;13.304;2024-03-17T00:31:40;6.00;99.90
31451;DHT22;18070;52.474;13.304;2024-03-17T00:34:06;6.00;99.90
31451;DHT22;18070;52.474;13.304;2024-03-17T00:36:31;5.90;99.90
31451;DHT22;18070;52.474;13.304;2024-03-17T00:38:57;6.00;99.90
31451;DHT22;18070;52.474;13.304;2024-03-17T00:41:22;6.00;99.90
31451;DHT22;18070;52.474;13.304;2024-03-17T00:43:49;5.90;99.90
31451;DHT22;18070;52.474;13.304;2024-03-17T00:46:15;5.90;99.90
31451;DHT22;18070;52.474;13.304;2024-03-17T00:48:40;5.90;99.90
31451;DHT22;18070;52.474;13.304;2024-03-17T00:51:06;5.90;99.90
31451;DHT22;18070;52.474;13.304;2024-03-17T00:53:31;5.90;99.90
31451;DHT22;18070;52.474;13.304;2024-03-17T00:55:57;5.90;99.90
31451;DHT22;18070;52.474;13.304;2024-03-17T00:58:24;5.90;99.90
31451;DHT22;18070;52.474;13.304;2024-03-17T01:00:49;5.80;99.90
31451;DHT22;18070;52.474;13.304;2024-03-17T01:03:18;5.80;99.90
31451;DHT22;18070;52.474;13.304;2024-03-17T01:05:44;5.80;99.90
31451;DHT22;18070;52.474;13.304;2024-03-17T01:08:16;5.80;99.90
31451;DHT22;18070;52.474;13.304;2024-03-17T01:10:42;5.80;99.90
31451;DHT22;18070;52.474;13.304;2024-03-17T01:13:08;5.90;99.90
31451;DHT22;18070;52.474;13.304;2024-03-17T01:15:36;5.80;99.90
31451;DHT22;18070;52.474;13.304;2024-03-17T01:18:05;5.80;99.90
31451;DHT22;18070;52.474;13.304;2024-03-17T01:20:39;5.70;99.90
31451;DHT22;18070;52.474;13.304;2024-03-17T01:23:05;5.70;99.90
31451;DHT22;18070;52.474;13.304;2024-03-17T01:25:32;5.70;99.90
31451;DHT22;18070;52.474;13.304;2024-03-17T01:28:01;5.60;99.90
31451;DHT22;18070;52.474;13.304;2024-03-17T01:30:26;5.60;99.90
31451;DHT22;18070;52.474;13.304;2024-03-17T01:32:52;5.70;99.90
31451;DHT22;18070;52.474;13.304;2024-03-17T01:35:18;5.60;99.90
31451;DHT22;18070;52.474;13.304;2024-03-17T01:37:43;5.60;99.90
31451;DHT22;18070;52.474;13.304;2024-03-17T01:40:09;5.60;99.90
31451;DHT22;18070;52.474;13.304;2024-03-17T01:42:39;5.60;99.90
31451;DHT22;18070;52.474;13.304;2024-03-17T01:47:46;5.50;99.90
31451;DHT22;18070;52.474;13.304;2024-03-17T01:50:11;5.50;99.90
31451;DHT22;18070;52.474;13.304;2024-03-17T01:52:39;5.40;99.90
31451;DHT22;18070;52.474;13.304;2024-03-17T01:55:04;5.50;99.90
31451;DHT22;18070;52.474;13.304;2024-03-17T01:57:31;5.40;99.90
31451;DHT22;18070;52.474;13.304;2024-03-17T01:59:57;5.40;99.90
31451;DHT22;18070;52.474;13.304;2024-03-17T02:02:23;5.30;99.90
31451;DHT22;18070;52.474;13.304;2024-03-17T02:04:49;5.40;99.90
31451;DHT22;18070;52.474;13.304;2024-03-17T02:07:15;5.30;99.90
31451;DHT22;18070;52.474;13.304;2024-03-17T02:09:41;5.30;99.90
31451;DHT22;18070;52.474;13.304;2024-03-17T02:12:09;5.20;99.90
31451;DHT22;18070;52.474;13.304;2024-03-17T02:14:35;5.20;99.90
31451;DHT22;18070;52.474;13.304;2024-03-17T02:17:00;5.20;99.90
31451;DHT22;18070;52.474;13.304;2024-03-17T02:19:26;5.20;99.90
31451;DHT22;18070;52.474;13.304;2024-03-17T02:21:51;5.20;99.90
31451;DHT22;18070;52.474;13.304;2024-03-17T02:24:17;5.20;99.90
31451;DHT22;18070;52.474;13.304;2024-03-17T02:26:42;5.10;99.90
31451;DHT22;18070;52.474;13.304;2024-03-17T02:29:08;5.10;99.90
31451;DHT22;18070;52.474;13.304;2024-03-17T02:31:34;5.10;99.90
31451;DHT22;18070;52.474;13.304;2024-03-17T02:34:00;5.10;99.90
31451;DHT22;18070;52.474;13.304;2024-03-17T02:36:25;5.00;99.90
31451;DHT22;18070;52.474;13.304;2024-03-17T02:38:51;5.00;99.90
31451;DHT22;18070;52.474;13.304;2024-03-17T02:41:36;5.10;99.90
31451;DHT22;18070;52.474;13.304;2024-03-17T02:44:01;5.10;99.90
31451;DHT22;18070;52.474;13.304;2024-03-17T02:46:27;5.00;99.90
31451;DHT22;18070;52.474;13.304;2024-03-17T02:48:53;5.00;99.90
31451;DHT22;18070;52.474;13.304;2024-03-17T02:51:20;5.00;99.90
31451;DHT22;18070;52.474;13.304;2024-03-17T02:53:47;4.90;99.90
31451;DHT22;18070;52.474;13.304;2024-03-17T02:56:14;4.90;99.90
31451;DHT22;18070;52.474;13.304;2024-03-17T02:58:44;4.90;99.90
31451;DHT22;18070;52.474;13.304;2024-03-17T03:01:11;4.90;99.90
31451;DHT22;18070;52.474;13.304;2024-03-17T03:03:37;4.90;99.90
31451;DHT22;18070;52.474;13.304;2024-03-17T03:06:04;4.90;99.90
31451;DHT22;18070;52.474;13.304;2024-03-17T03:08:43;4.80;99.90
31451;DHT22;18070;52.474;13.304;2024-03-17T03:11:10;4.80;99.90
31451;DHT22;18070;52.474;13.304;2024-03-17T03:13:41;4.80;99.90
31451;DHT22;18070;52.474;13.304;2024-03-17T03:16:12;4.70;99.90
31451;DHT22;18070;52.474;13.304;2024-03-17T03:18:39;4.70;99.90
31451;DHT22;18070;52.474;13.304;2024-03-17T03:21:06;4.70;99.90
31451;DHT22;18070;52.474;13.304;2024-03-17T03:23:32;4.70;99.90
31451;DHT22;18070;52.474;13.304;2024-03-17T03:25:58;4.70;99.90
31451;DHT22;18070;52.474;13.304;2024-03-17T03:28:25;4.70;99.90
31451;DHT22;18070;52.474;13.304;2024-03-17T03:30:51;4.70;99.90
31451;DHT22;18070;52.474;13.304;2024-03-17T03:33:18;4.70;99.90
31451;DHT22;18070;52.474;13.304;2024-03-17T03:35:44;4.60;99.90
31451;DHT22;18070;52.474;13.304;2024-03-17T03:38:09;4.60;99.90
31451;DHT22;18070;52.474;13.304;2024-03-17T03:40:35;4.60;99.90
31451;DHT22;18070;52.474;13.304;2024-03-17T03:43:00;4.60;99.90
31451;DHT22;18070;52.474;13.304;2024-03-17T03:45:26;4.60;99.90
31451;DHT22;18070;52.474;13.304;2024-03-17T03:47:51;4.60;99.90
31451;DHT22;18070;52.474;13.304;2024-03-17T03:50:20;4.60;99.90
31451;DHT22;18070;52.474;13.304;2024-03-17T03:52:46;4.60;99.90
31451;DHT22;18070;52.474;13.304;2024-03-17T03:55:12;4.60;99.90
31451;DHT22;18070;52.474;13.304;2024-03-17T03:57:41;4.60;99.90
31451;DHT22;18070;52.474;13.304;2024-03-17T04:00:08;4.50;99.90
31451;DHT22;18070;52.474;13.304;2024-03-17T04:02:42;4.50;99.90
31451;DHT22;18070;52.474;13.304;2024-03-17T04:05:09;4.50;99.90
31451;DHT22;18070;52.474;13.304;2024-03-17T04:07:35;4.50;99.90
31451;DHT22;18070;52.474;13.304;2024-03-17T04:10:02;4.50;99.90
31451;DHT22;18070;52.474;13.304;2024-03-17T04:12:28;4.40;99.90
31451;DHT22;18070;52.474;13.304;2024-03-17T04:14:56;4.40;99.90
31451;DHT22;18070;52.474;13.304;2024-03-17T04:17:22;4.30;99.90
31451;DHT22;18070;52.474;13.304;2024-03-17T04:19:49;4.40;99.90
31451;DHT22;18070;52.474;13.304;2024-03-17T04:22:15;4.30;99.90
31451;DHT22;18070;52.474;13.304;2024-03-17T04:24:45;4.30;99.90
31451;DHT22;18070;52.474;13.304;2024-03-17T04:27:10;4.30;99.90
31451;DHT22;18070;52.474;13.304;2024-03-17T04:29:36;4.30;99.90
31451;DHT22;18070;52.474;13.304;2024-03-17T04:32:02;4.30;99.90
31451;DHT22;18070;52.474;13.304;2024-03-17T04:34:30;4.20;99.90
31451;DHT22;18070;52.474;13.304;2024-03-17T04:36:56;4.20;99.90
31451;DHT22;18070;52.474;13.304;2024-03-17T04:39:22;4.20;99.90
31451;DHT22;18070;52.474;13.304;2024-03-17T04:41:48;4.20;99.90
31451;DHT22;18070;52.474;13.304;2024-03-17T04:44:15;4.20;99.90
31451;DHT22;18070;52.474;13.304;2024-03-17T04:46:41;4.20;99.90
31451;DHT22;18070;52.474;13.304;2024-03-17T04:49:07;4.20;99.90
31451;DHT22;18070;52.474;13.304;2024-03-17T04:51:33;4.20;99.90
31451;DHT22;18070;52.474;13.304;2024-03-17T04:53:59;4.20;99.90
31451;DHT22;18070;52.474;13.304;2024-03-17T04:56:25;4.20;99.90
31451;DHT22;18070;52.474;13.304;2024-03-17T04:58:50;4.20;99.90
31451;DHT22;18070;52.474;13.304;2024-03-17T05:01:16;4.20;99.90
31451;DHT22;18070;52.474;13.304;2024-03-17T05:03:42;4.10;99.90
31451;DHT22;18070;52.474;13.304;2024-03-17T05:06:07;4.10;99.90
31451;DHT22;18070;52.474;13.304;2024-03-17T05:08:33;4.10;99.90
31451;DHT22;18070;52.474;13.304;2024-03-17T05:11:03;4.00;99.90
31451;DHT22;18070;52.474;13.304;2024-03-17T05:13:31;4.10;99.90
31451;DHT22;18070;52.474;13.304;2024-03-17T05:15:56;4.00;99.90
31451;DHT22;18070;52.474;13.304;2024-03-17T05:18:25;4.00;99.90
31451;DHT22;18070;52.474;13.304;2024-03-17T05:20:58;4.00;99.90
31451;DHT22;18070;52.474;13.304;2024-03-17T05:23:28;4.00;99.90
31451;DHT22;18070;52.474;13.304;2024-03-17T05:25:55;4.00;99.90
31451;DHT22;18070;52.474;13.304;2024-03-17T05:28:21;4.00;99.90
31451;DHT22;18070;52.474;13.304;2024-03-17T05:30:47;4.00;99.90
31451;DHT22;18070;52.474;13.304;2024-03-17T05:33:13;4.00;99.90
31451;DHT22;18070;52.474;13.304;2024-03-17T05:35:39;4.00;99.90
31451;DHT22;18070;52.474;13.304;2024-03-17T05:38:04;3.90;99.90
31451;DHT22;18070;52.474;13.304;2024-03-17T05:40:30;3.90;99.90
31451;DHT22;18070;52.474;13.304;2024-03-17T05:42:58;4.00;99.90
31451;DHT22;18070;52.474;13.304;2024-03-17T05:45:25;4.00;99.90
31451;DHT22;18070;52.474;13.304;2024-03-17T05:47:51;4.00;99.90
31451;DHT22;18070;52.474;13.304;2024-03-17T05:50:16;4.00;99.90
31451;DHT22;18070;52.474;13.304;2024-03-17T05:52:42;4.00;99.90
31451;DHT22;18070;52.474;13.304;2024-03-17T05:55:07;4.00;99.90
31451;DHT22;18070;52.474;13.304;2024-03-17T05:57:33;4.00;99.90
31451;DHT22;18070;52.474;13.304;2024-03-17T05:59:58;4.00;99.90
31451;DHT22;18070;52.474;13.304;2024-03-17T06:02:24;4.10;99.90
31451;DHT22;18070;52.474;13.304;2024-03-17T06:04:49;4.10;99.90
31451;DHT22;18070;52.474;13.304;2024-03-17T06:07:15;4.10;99.90
31451;DHT22;18070;52.474;13.304;2024-03-17T06:09:41;4.10;99.90
31451;DHT22;18070;52.474;13.304;2024-03-17T06:12:06;4.10;99.90
31451;DHT22;18070;52.474;13.304;2024-03-17T06:14:32;4.10;99.90
31451;DHT22;18070;52.474;13.304;2024-03-17T06:16:59;4.20;99.90
31451;DHT22;18070;52.474;13.304;2024-03-17T06:19:25;4.20;99.90
31451;DHT22;18070;52.474;13.304;2024-03-17T06:21:50;4.20;99.90
31451;DHT22;18070;52.474;13.304;2024-03-17T06:24:16;4.30;99.90
31451;DHT22;18070;52.474;13.304;2024-03-17T06:26:42;4.30;99.90
31451;DHT22;18070;52.474;13.304;2024-03-17T06:29:08;4.30;99.90
31451;DHT22;18070;52.474;13.304;2024-03-17T06:31:33;4.40;99.90
31451;DHT22;18070;52.474;13.304;2024-03-17T06:33:59;4.40;99.90
31451;DHT22;18070;52.474;13.304;2024-03-17T06:36:24;4.40;99.90
31451;DHT22;18070;52.474;13.304;2024-03-17T06:38:50;4.50;99.90
31451;DHT22;18070;52.474;13.304;2024-03-17T06:41:16;4.50;99.90
31451;DHT22;18070;52.474;13.304;2024-03-17T06:43:42;4.60;99.90
31451;DHT22;18070;52.474;13.304;2024-03-17T06:46:08;4.60;99.90
31451;DHT22;18070;52.474;13.304;2024-03-17T06:48:34;4.70;99.90
31451;DHT22;18070;52.474;13.304;2024-03-17T06:50:59;4.80;99.90
31451;DHT22;18070;52.474;13.304;2024-03-17T06:53:25;4.80;99.90
31451;DHT22;18070;52.474;13.304;2024-03-17T06:55:59;4.90;99.90
31451;DHT22;18070;52.474;13.304;2024-03-17T06:58:26;5.00;99.90
31451;DHT22;18070;52.474;13.304;2024-03-17T07:03:23;5.10;99.90
31451;DHT22;18070;52.474;13.304;2024-03-17T07:05:52;5.20;99.90
31451;DHT22;18070;52.474;13.304;2024-03-17T07:08:18;5.30;99.90
31451;DHT22;18070;52.474;13.304;2024-03-17T07:10:58;5.40;99.90
31451;DHT22;18070;52.474;13.304;2024-03-17T07:13:24;5.60;99.90
31451;DHT22;18070;52.474;13.304;2024-03-17T07:15:50;5.70;99.90
31451;DHT22;18070;52.474;13.304;2024-03-17T07:18:15;5.90;99.90
31451;DHT22;18070;52.474;13.304;2024-03-17T07:20:41;6.00;99.90
31451;DHT22;18070;52.474;13.304;2024-03-17T07:23:07;6.20;99.90
31451;DHT22;18070;52.474;13.304;2024-03-17T07:25:32;6.30;99.90
31451;DHT22;18070;52.474;13.304;2024-03-17T07:27:58;6.50;99.90
31451;DHT22;18070;52.474;13.304;2024-03-17T07:30:23;6.70;99.90
31451;DHT22;18070;52.474;13.304;2024-03-17T07:32:49;6.90;99.90
31451;DHT22;18070;52.474;13.304;2024-03-17T07:35:14;7.10;99.90
31451;DHT22;18070;52.474;13.304;2024-03-17T07:37:40;7.30;99.90
31451;DHT22;18070;52.474;13.304;2024-03-17T07:40:06;7.40;99.90
31451;DHT22;18070;52.474;13.304;2024-03-17T07:42:32;7.60;99.90
31451;DHT22;18070;52.474;13.304;2024-03-17T07:44:58;7.90;99.90
31451;DHT22;18070;52.474;13.304;2024-03-17T07:47:24;8.10;99.90
31451;DHT22;18070;52.474;13.304;2024-03-17T07:49:50;8.30;99.90
31451;DHT22;18070;52.474;13.304;2024-03-17T07:52:16;8.60;99.90
31451;DHT22;18070;52.474;13.304;2024-03-17T07:54:41;8.70;99.90
31451;DHT22;18070;52.474;13.304;2024-03-17T07:57:08;9.00;99.90
31451;DHT22;18070;52.474;13.304;2024-03-17T07:59:34;9.20;99.90
31451;DHT22;18070;52.474;13.304;2024-03-17T08:01:59;9.40;99.90
31451;DHT22;18070;52.474;13.304;2024-03-17T08:04:25;9.70;99.90
31451;DHT22;18070;52.474;13.304;2024-03-17T08:06:51;10.00;99.90
31451;DHT22;18070;52.474;13.304;2024-03-17T08:09:16;10.10;99.90
31451;DHT22;18070;52.474;13.304;2024-03-17T08:11:43;10.30;99.90
31451;DHT22;18070;52.474;13.304;2024-03-17T08:14:12;10.60;99.90
31451;DHT22;18070;52.474;13.304;2024-03-17T08:16:40;10.80;99.90
31451;DHT22;18070;52.474;13.304;2024-03-17T08:19:06;11.00;99.90
31451;DHT22;18070;52.474;13.304;2024-03-17T08:21:32;11.20;99.90
31451;DHT22;18070;52.474;13.304;2024-03-17T08:23:58;11.20;99.90
31451;DHT22;18070;52.474;13.304;2024-03-17T08:26:23;11.30;99.90
31451;DHT22;18070;52.474;13.304;2024-03-17T08:28:49;11.50;99.90
31451;DHT22;18070;52.474;13.304;2024-03-17T08:31:14;11.80;99.90
31451;DHT22;18070;52.474;13.304;2024-03-17T08:33:41;11.50;99.90
31451;DHT22;18070;52.474;13.304;2024-03-17T08:36:07;11.40;99.90
31451;DHT22;18070;52.474;13.304;2024-03-17T08:38:34;11.70;99.90
31451;DHT22;18070;52.474;13.304;2024-03-17T08:41:04;11.90;99.90
31451;DHT22;18070;52.474;13.304;2024-03-17T08:43:31;12.10;99.90
31451;DHT22;18070;52.474;13.304;2024-03-17T08:46:05;12.00;99.90
31451;DHT22;18070;52.474;13.304;2024-03-17T08:48:33;12.20;99.90
31451;DHT22;18070;52.474;13.304;2024-03-17T08:51:00;12.60;99.90
31451;DHT22;18070;52.474;13.304;2024-03-17T08:53:27;13.30;99.90
31451;DHT22;18070;52.474;13.304;2024-03-17T08:55:53;13.10;99.90
31451;DHT22;18070;52.474;13.304;2024-03-17T08:58:19;12.40;99.90
31451;DHT22;18070;52.474;13.304;2024-03-17T09:00:45;11.70;99.90
31451;DHT22;18070;52.474;13.304;2024-03-17T09:03:11;11.60;99.90
31451;DHT22;18070;52.474;13.304;2024-03-17T09:05:44;11.50;99.90
31451;DHT22;18070;52.474;13.304;2024-03-17T09:08:22;12.00;99.90
31451;DHT22;18070;52.474;13.304;2024-03-17T09:10:52;12.50;99.90
31451;DHT22;18070;52.474;13.304;2024-03-17T09:13:19;13.30;99.90
31451;DHT22;18070;52.474;13.304;2024-03-17T09:15:58;13.70;99.90
31451;DHT22;18070;52.474;13.304;2024-03-17T09:18:25;13.70;98.20
31451;DHT22;18070;52.474;13.304;2024-03-17T09:20:57;13.10;99.00
31451;DHT22;18070;52.474;13.304;2024-03-17T09:23:23;12.90;99.90
31451;DHT22;18070;52.474;13.304;2024-03-17T09:26:06;12.50;99.90
31451;DHT22;18070;52.474;13.304;2024-03-17T09:28:34;11.90;99.90
31451;DHT22;18070;52.474;13.304;2024-03-17T09:31:00;11.70;99.90
31451;DHT22;18070;52.474;13.304;2024-03-17T09:33:27;11.40;99.90
31451;DHT22;18070;52.474;13.304;2024-03-17T09:36:04;11.20;99.90
31451;DHT22;18070;52.474;13.304;2024-03-17T09:38:31;11.50;99.90
31451;DHT22;18070;52.474;13.304;2024-03-17T09:40:57;11.80;99.90
31451;DHT22;18070;52.474;13.304;2024-03-17T09:43:26;12.90;99.50
31451;DHT22;18070;52.474;13.304;2024-03-17T09:45:53;13.20;97.60
31451;DHT22;18070;52.474;13.304;2024-03-17T09:48:23;12.70;97.20
31451;DHT22;18070;52.474;13.304;2024-03-17T09:50:53;12.60;99.80
31451;DHT22;18070;52.474;13.304;2024-03-17T09:53:27;12.60;98.10
31451;DHT22;18070;52.474;13.304;2024-03-17T09:56:15;12.30;99.40
31451;DHT22;18070;52.474;13.304;2024-03-17T09:58:45;12.10;99.20
31451;DHT22;18070;52.474;13.304;2024-03-17T10:01:11;11.90;98.30
31451;DHT22;18070;52.474;13.304;2024-03-17T10:06:10;12.90;99.90
31451;DHT22;18070;52.474;13.304;2024-03-17T10:08:54;13.70;97.10
31451;DHT22;18070;52.474;13.304;2024-03-17T10:11:24;14.40;95.90
31451;DHT22;18070;52.474;13.304;2024-03-17T10:14:07;14.20;96.80
31451;DHT22;18070;52.474;13.304;2024-03-17T10:16:34;14.20;96.50
31451;DHT22;18070;52.474;13.304;2024-03-17T10:21:32;13.40;96.70
31451;DHT22;18070;52.474;13.304;2024-03-17T10:24:05;12.90;97.10
31451;DHT22;18070;52.474;13.304;2024-03-17T10:26:36;12.60;97.80
31451;DHT22;18070;52.474;13.304;2024-03-17T10:29:02;12.30;98.10
31451;DHT22;18070;52.474;13.304;2024-03-17T10:31:29;12.10;98.70
31451;DHT22;18070;52.474;13.304;2024-03-17T10:34:02;12.70;98.20
31451;DHT22;18070;52.474;13.304;2024-03-17T10:36:27;12.80;97.20
31451;DHT22;18070;52.474;13.304;2024-03-17T10:38:53;12.70;98.10
31451;DHT22;18070;52.474;13.304;2024-03-17T10:41:21;12.70;97.30
31451;DHT22;18070;52.474;13.304;2024-03-17T10:43:47;12.50;96.70
31451;DHT22;18070;52.474;13.304;2024-03-17T10:46:15;12.30;97.30
31451;DHT22;18070;52.474;13.304;2024-03-17T10:48:41;12.10;97.10
31451;DHT22;18070;52.474;13.304;2024-03-17T10:51:16;11.90;98.10
31451;DHT22;18070;52.474;13.304;2024-03-17T10:53:43;12.50;98.60
31451;DHT22;18070;52.474;13.304;2024-03-17T10:56:14;13.30;98.10
31451;DHT22;18070;52.474;13.304;2024-03-17T10:58:43;14.40;95.00
31451;DHT22;18070;52.474;13.304;2024-03-17T11:01:14;14.50;94.70
31451;DHT22;18070;52.474;13.304;2024-03-17T11:03:41;15.00;91.70
31451;DHT22;18070;52.474;13.304;2024-03-17T11:06:07;15.30;91.80
31451;DHT22;18070;52.474;13.304;2024-03-17T11:08:34;15.40;90.70
31451;DHT22;18070;52.474;13.304;2024-03-17T11:11:01;15.80;91.50
31451;DHT22;18070;52.474;13.304;2024-03-17T11:13:28;16.40;90.10
31451;DHT22;18070;52.474;13.304;2024-03-17T11:15:55;16.30;86.10
31451;DHT22;18070;52.474;13.304;2024-03-17T11:18:34;16.70;89.00
31451;DHT22;18070;52.474;13.304;2024-03-17T11:21:01;17.40;85.40
31451;DHT22;18070;52.474;13.304;2024-03-17T11:23:33;17.80;79.00
31451;DHT22;18070;52.474;13.304;2024-03-17T11:25:59;16.70;81.70
31451;DHT22;18070;52.474;13.304;2024-03-17T11:33:59;17.20;79.40
31451;DHT22;18070;52.474;13.304;2024-03-17T11:38:51;16.60;83.70
31451;DHT22;18070;52.474;13.304;2024-03-17T11:47:01;18.00;75.10
31451;DHT22;18070;52.474;13.304;2024-03-17T11:49:36;17.70;75.80
31451;DHT22;18070;52.474;13.304;2024-03-17T11:52:04;17.80;74.10
31451;DHT22;18070;52.474;13.304;2024-03-17T11:54:34;17.30;72.70
31451;DHT22;18070;52.474;13.304;2024-03-17T11:57:02;17.10;75.10
31451;DHT22;18070;52.474;13.304;2024-03-17T11:59:28;16.90;74.70
31451;DHT22;18070;52.474;13.304;2024-03-17T12:01:54;16.80;77.20
31451;DHT22;18070;52.474;13.304;2024-03-17T12:04:21;16.50;79.50
31451;DHT22;18070;52.474;13.304;2024-03-17T12:06:48;16.50;77.90
31451;DHT22;18070;52.474;13.304;2024-03-17T12:09:28;16.30;77.50
31451;DHT22;18070;52.474;13.304;2024-03-17T12:12:10;16.20;77.90
31451;DHT22;18070;52.474;13.304;2024-03-17T12:14:37;15.80;79.90
31451;DHT22;18070;52.474;13.304;2024-03-17T12:17:08;15.70;78.40
31451;DHT22;18070;52.474;13.304;2024-03-17T12:19:34;15.40;78.20
31451;DHT22;18070;52.474;13.304;2024-03-17T12:22:01;15.30;78.50
31451;DHT22;18070;52.474;13.304;2024-03-17T12:24:29;15.20;84.00
31451;DHT22;18070;52.474;13.304;2024-03-17T12:26:56;15.00;82.50
